Time;durP1;ratioP1;P1;durP2;ratioP2;P2;SDS_P1;SDS_P2;PMS_P1;PMS_P2;Temp;Humidity;BMP_temperature;BMP_pressure;BME280_temperature;BME280_humidity;BME280_pressure;Samples;Min_cycle;Max_cycle;Signal;HPM_P1;HPM_P2
2022/07/13 00:00:54;;;;;;;;;;;;;;;27.70;34.18;100887.81;5059098;28;1252;-35
2022/07/13 00:03:20;;;;;;;;;;;;;;;27.69;34.04;100880.75;5065938;28;1020;-36
2022/07/13 00:05:45;;;;;;;;;;;;;;;27.72;34.07;100877.66;5068283;28;1219;-35
2022/07/13 00:08:10;;;;;;;;;;;;;;;27.69;34.10;100872.63;5063685;28;1104;-36
2022/07/13 00:10:35;;;;;;;;;;;;;;;27.71;34.13;100872.44;5074617;28;1008;-36
2022/07/13 00:13:01;;;;;;;;;;;;;;;27.71;34.03;100875.97;5062373;28;1004;-37
2022/07/13 00:15:26;;;;;;;;;;;;;;;27.74;34.00;100872.09;5063653;28;1004;-37
2022/07/13 00:17:51;;;;;;;;;;;;;;;27.70;33.95;100876.16;5064174;28;1975;-37
2022/07/13 00:20:17;;;;;;;;;;;;;;;27.72;34.00;100872.25;5062062;28;1467;-32
2022/07/13 00:22:42;;;;;;;;;;;;;;;27.71;34.29;100870.56;5066412;28;870;-33
2022/07/13 00:25:07;;;;;;;;;;;;;;;27.67;34.07;100876.50;5060733;28;997;-38
2022/07/13 00:27:33;;;;;;;;;;;;;;;27.73;33.76;100871.22;5062096;28;976;-37
2022/07/13 00:29:58;;;;;;;;;;;;;;;27.67;34.05;100881.91;5069602;28;988;-34
2022/07/13 00:32:23;;;;;;;;;;;;;;;27.64;33.99;100880.41;5062768;28;990;-35
2022/07/13 00:34:49;;;;;;;;;;;;;;;27.72;33.56;100883.06;5059074;28;979;-37
2022/07/13 00:37:14;;;;;;;;;;;;;;;27.68;33.72;100886.28;5067183;28;1202;-36
2022/07/13 00:39:39;;;;;;;;;;;;;;;27.67;33.97;100881.91;5065315;28;1971;-38
2022/07/13 00:42:04;;;;;;;;;;;;;;;27.62;34.18;100875.19;5061133;28;1174;-36
2022/07/13 00:44:30;;;;;;;;;;;;;;;27.66;33.85;100874.84;5066567;28;1114;-37
2022/07/13 00:46:55;;;;;;;;;;;;;;;27.58;34.17;100873.03;5069281;28;892;-35
2022/07/13 00:49:21;;;;;;;;;;;;;;;27.60;33.88;100881.78;5056360;28;1009;-38
2022/07/13 00:51:46;;;;;;;;;;;;;;;27.63;33.81;100876.88;5062286;28;960;-38
2022/07/13 00:54:11;;;;;;;;;;;;;;;27.63;33.80;100876.88;5064983;28;1120;-38
2022/07/13 00:56:37;;;;;;;;;;;;;;;27.65;33.99;100883.94;5061909;28;1064;-34
2022/07/13 00:59:02;;;;;;;;;;;;;;;27.59;33.92;100885.53;5068423;28;1971;-35
2022/07/13 01:01:27;;;;;;;;;;;;;;;27.61;33.99;100887.00;5062155;28;1123;-36
2022/07/13 01:03:53;;;;;;;;;;;;;;;27.60;33.93;100881.78;5060793;28;1036;-37
2022/07/13 01:06:18;;;;;;;;;;;;;;;27.59;34.36;100874.72;5068061;28;1075;-36
2022/07/13 01:08:43;;;;;;;;;;;;;;;27.59;33.98;100880.94;5067949;28;969;-37
2022/07/13 01:11:09;;;;;;;;;;;;;;;27.59;33.79;100878.25;5069846;28;945;-33
2022/07/13 01:13:34;;;;;;;;;;;;;;;27.60;34.25;100885.34;5060949;28;973;-34
2022/07/13 01:15:59;;;;;;;;;;;;;;;27.61;33.89;100880.78;5058465;28;1146;-34
2022/07/13 01:18:25;;;;;;;;;;;;;;;27.60;33.96;100877.25;5064100;28;1975;-36
2022/07/13 01:20:50;;;;;;;;;;;;;;;27.62;33.75;100882.47;5064319;28;1366;-37
2022/07/13 01:23:15;;;;;;;;;;;;;;;27.62;33.63;100882.47;5057937;28;951;-36
2022/07/13 01:25:41;;;;;;;;;;;;;;;27.60;33.99;100877.25;5064713;28;1012;-37
2022/07/13 01:28:06;;;;;;;;;;;;;;;27.56;33.88;100881.31;5070588;28;1156;-38
2022/07/13 01:30:32;;;;;;;;;;;;;;;27.56;33.72;100870.50;5061778;28;1040;-35
2022/07/13 01:32:57;;;;;;;;;;;;;;;27.63;33.76;100878.72;5068320;28;1052;-36
2022/07/13 01:35:22;;;;;;;;;;;;;;;27.59;34.06;100869.31;5070865;28;924;-39
2022/07/13 01:37:48;;;;;;;;;;;;;;;27.60;33.69;100881.78;5067276;28;1079;-36
2022/07/13 01:40:13;;;;;;;;;;;;;;;27.61;33.83;100883.50;5063443;28;1190;-38
2022/07/13 01:42:48;;;;;;;;;;;;;;;27.58;33.87;100887.38;5071078;28;964;-38
2022/07/13 01:45:14;;;;;;;;;;;;;;;27.56;33.61;100889.41;5072681;28;1179;-38
2022/07/13 01:47:39;;;;;;;;;;;;;;;27.58;34.02;100889.25;5060528;28;985;-36
2022/07/13 01:50:05;;;;;;;;;;;;;;;27.51;34.13;100894.53;5065428;28;1043;-38
2022/07/13 01:52:31;;;;;;;;;;;;;;;27.57;33.35;100898.38;5070709;28;1152;-36
2022/07/13 01:54:56;;;;;;;;;;;;;;;27.58;34.01;100897.34;5066576;28;985;-37
2022/07/13 01:57:21;;;;;;;;;;;;;;;27.57;33.61;100888.41;5061439;28;1139;-37
2022/07/13 01:59:46;;;;;;;;;;;;;;;27.59;33.81;100882.81;5065123;28;1959;-38
2022/07/13 02:02:12;;;;;;;;;;;;;;;27.63;33.39;100884.13;5073022;28;1186;-37
2022/07/13 02:04:37;;;;;;;;;;;;;;;27.59;33.36;100874.72;5065048;28;1045;-36
2022/07/13 02:07:02;;;;;;;;;;;;;;;27.57;33.64;100879.47;5078018;28;984;-38
2022/07/13 02:09:28;;;;;;;;;;;;;;;27.56;34.02;100875.91;5064379;28;1209;-34
2022/07/13 02:11:53;;;;;;;;;;;;;;;27.63;33.67;100878.72;5065098;28;1024;-36
2022/07/13 02:14:19;;;;;;;;;;;;;;;27.56;33.72;100885.91;5061483;28;973;-37
2022/07/13 02:16:45;;;;;;;;;;;;;;;27.49;33.17;100888.50;5066946;28;964;-37
2022/07/13 02:19:10;;;;;;;;;;;;;;;27.43;33.84;100891.91;5067779;28;1894;-38
2022/07/13 02:21:35;;;;;;;;;;;;;;;27.43;33.41;100854.94;5061823;28;1005;-37
2022/07/13 02:24:01;;;;;;;;;;;;;;;27.46;33.80;100876.16;5071571;28;1036;-37
2022/07/13 02:26:26;;;;;;;;;;;;;;;27.44;33.92;100891.75;5062167;28;1130;-36
2022/07/13 02:28:52;;;;;;;;;;;;;;;27.48;33.70;100884.94;5076712;28;988;-38
2022/07/13 02:31:18;;;;;;;;;;;;;;;27.42;33.72;100885.69;5064871;28;1122;-37
2022/07/13 02:33:43;;;;;;;;;;;;;;;27.42;33.65;100879.44;5068390;28;1595;-37
2022/07/13 02:36:09;;;;;;;;;;;;;;;27.47;33.64;100869.75;5061926;28;1047;-38
2022/07/13 02:38:34;;;;;;;;;;;;;;;27.47;33.68;100868.91;5070419;28;1947;-36
2022/07/13 02:40:59;;;;;;;;;;;;;;;27.43;33.75;100875.69;5065877;28;1187;-36
2022/07/13 02:43:25;;;;;;;;;;;;;;;27.46;33.73;100872.66;5064188;28;1079;-34
2022/07/13 02:45:50;;;;;;;;;;;;;;;27.39;33.35;100876.06;5070881;28;1004;-37
2022/07/13 02:48:15;;;;;;;;;;;;;;;27.36;33.66;100872.91;5064510;28;1004;-35
2022/07/13 02:50:41;;;;;;;;;;;;;;;27.40;33.66;100868.81;5059540;28;1091;-35
2022/07/13 02:53:06;;;;;;;;;;;;;;;27.41;33.47;100864.25;5066713;28;1055;-36
2022/07/13 02:55:31;;;;;;;;;;;;;;;27.43;33.63;100862.19;5068109;28;1016;-37
2022/07/13 02:57:56;;;;;;;;;;;;;;;27.33;33.80;100862.44;5062752;28;1898;-38
2022/07/13 03:00:22;;;;;;;;;;;;;;;27.34;33.30;100864.94;5070022;28;1173;-36
2022/07/13 03:02:47;;;;;;;;;;;;;;;27.37;33.20;100863.78;5062948;28;1060;-37
2022/07/13 03:05:13;;;;;;;;;;;;;;;27.41;33.75;100867.78;5065103;28;1160;-38
2022/07/13 03:07:39;;;;;;;;;;;;;;;27.43;33.24;100870.28;5070893;28;1088;-37
2022/07/13 03:10:04;;;;;;;;;;;;;;;27.42;33.71;100874.03;5061225;28;949;-36
2022/07/13 03:12:30;;;;;;;;;;;;;;;27.34;33.74;100872.25;5068500;28;918;-38
2022/07/13 03:14:55;;;;;;;;;;;;;;;27.23;33.35;100868.94;5061052;28;1445;-38
2022/07/13 03:17:20;;;;;;;;;;;;;;;26.58;30.85;100874.56;5064471;28;1057;-40
2022/07/13 03:19:46;;;;;;;;;;;;;;;26.09;31.57;100870.16;5060149;28;1911;-39
2022/07/13 03:22:11;;;;;;;;;;;;;;;26.19;32.42;100862.72;5065947;28;1051;-36
2022/07/13 03:24:36;;;;;;;;;;;;;;;23.45;33.51;100852.94;5069783;28;1529;-38
2022/07/13 03:27:02;;;;;;;;;;;;;;;23.23;35.10;100860.44;5065526;28;997;-38
2022/07/13 03:29:27;;;;;;;;;;;;;;;24.73;33.17;100858.69;5062397;28;1111;-35
2022/07/13 03:31:53;;;;;;;;;;;;;;;25.36;33.50;100866.34;5060900;28;1143;-39
2022/07/13 03:34:18;;;;;;;;;;;;;;;25.83;32.54;100855.91;5067325;28;1056;-40
2022/07/13 03:36:43;;;;;;;;;;;;;;;26.20;32.56;100855.47;5069370;28;1223;-39
2022/07/13 03:39:08;;;;;;;;;;;;;;;26.25;31.96;100859.34;5063642;28;1959;-39
2022/07/13 03:41:34;;;;;;;;;;;;;;;26.21;32.49;100849.06;5063766;28;1146;-40
2022/07/13 03:43:59;;;;;;;;;;;;;;;26.19;32.25;100843.00;5057425;28;969;-40
2022/07/13 03:46:24;;;;;;;;;;;;;;;26.33;32.03;100845.00;5065270;28;980;-40
2022/07/13 03:48:50;;;;;;;;;;;;;;;26.34;32.26;100843.97;5065491;28;997;-39
2022/07/13 03:51:15;;;;;;;;;;;;;;;26.02;33.25;100848.47;5062434;28;1056;-40
2022/07/13 03:53:40;;;;;;;;;;;;;;;25.17;34.33;100846.00;5061501;28;956;-39
2022/07/13 03:56:06;;;;;;;;;;;;;;;25.29;33.74;100849.22;5059001;28;1676;-39
2022/07/13 03:58:31;;;;;;;;;;;;;;;25.59;32.67;100857.59;5063124;28;1890;-39
2022/07/13 04:00:57;;;;;;;;;;;;;;;25.22;32.67;100854.44;5059052;28;1218;-39
2022/07/13 04:03:22;;;;;;;;;;;;;;;25.21;32.16;100855.41;5075392;28;1123;-38
2022/07/13 04:05:47;;;;;;;;;;;;;;;24.70;33.35;100853.63;5062570;28;1221;-37
2022/07/13 04:08:12;;;;;;;;;;;;;;;25.00;33.29;100853.22;5067574;28;2409;-40
2022/07/13 04:10:38;;;;;;;;;;;;;;;24.98;33.27;100850.69;5063865;28;1796;-40
2022/07/13 04:13:03;;;;;;;;;;;;;;;24.94;33.54;100846.66;5063131;28;2099;-41
2022/07/13 04:15:28;;;;;;;;;;;;;;;24.62;34.08;100851.78;5062530;28;2179;-38
2022/07/13 04:17:54;;;;;;;;;;;;;;;24.63;34.29;100866.03;5058899;28;2160;-39
2022/07/13 04:20:19;;;;;;;;;;;;;;;24.62;34.59;100867.91;5066528;28;2002;-38
2022/07/13 04:22:44;;;;;;;;;;;;;;;24.72;34.49;100865.06;5060428;28;2123;-41
2022/07/13 04:25:10;;;;;;;;;;;;;;;24.69;34.51;100868.91;5064688;28;1222;-40
2022/07/13 04:27:35;;;;;;;;;;;;;;;24.66;34.91;100881.84;5061431;28;978;-41
2022/07/13 04:30:01;;;;;;;;;;;;;;;23.99;36.07;100876.13;5065578;28;1139;-41
2022/07/13 04:35:29;;;;;;;;;;;;;;;24.62;35.08;100877.81;5071446;28;1175;-38
2022/07/13 04:37:55;;;;;;;;;;;;;;;24.78;34.58;100877.88;5073210;28;1020;-40
2022/07/13 04:40:21;;;;;;;;;;;;;;;24.79;34.88;100884.91;5071521;28;1370;-39
2022/07/13 04:42:46;;;;;;;;;;;;;;;24.94;34.97;100893.22;5059495;28;1059;-40
2022/07/13 04:45:11;;;;;;;;;;;;;;;24.92;35.68;100886.34;5061125;28;1012;-40
2022/07/13 04:47:37;;;;;;;;;;;;;;;24.75;34.87;100885.41;5067224;28;1429;-38
2022/07/13 04:50:02;;;;;;;;;;;;;;;24.76;34.36;100881.72;5065680;28;1126;-40
2022/07/13 04:52:28;;;;;;;;;;;;;;;24.56;35.59;100885.53;5059688;28;1981;-40
2022/07/13 04:54:53;;;;;;;;;;;;;;;24.20;36.20;100878.50;5072340;28;1071;-39
2022/07/13 04:57:19;;;;;;;;;;;;;;;24.00;36.65;100877.00;5066967;28;1119;-41
2022/07/13 04:59:44;;;;;;;;;;;;;;;24.23;36.84;100871.09;5075291;28;1894;-43
2022/07/13 05:02:09;;;;;;;;;;;;;;;24.30;37.07;100878.38;5071483;28;1114;-44
2022/07/13 05:04:34;;;;;;;;;;;;;;;24.52;37.05;100883.31;5074199;28;1135;-49
2022/07/13 05:07:00;;;;;;;;;;;;;;;24.88;36.46;100888.47;5077831;28;1070;-46
2022/07/13 05:09:26;;;;;;;;;;;;;;;25.15;36.03;100902.72;5069815;28;1201;-48
2022/07/13 05:11:52;;;;;;;;;;;;;;;25.36;35.66;100898.66;5079031;28;1125;-38
2022/07/13 05:14:17;;;;;;;;;;;;;;;25.33;35.58;100901.72;5073125;28;1078;-44
2022/07/13 05:16:42;;;;;;;;;;;;;;;25.22;35.56;100897.50;5067920;28;995;-47
2022/07/13 05:19:07;;;;;;;;;;;;;;;25.21;35.38;100903.88;5073565;28;1910;-43
2022/07/13 05:21:33;;;;;;;;;;;;;;;25.03;35.49;100906.69;5065904;28;2007;-40
2022/07/13 05:23:58;;;;;;;;;;;;;;;25.16;35.48;100904.38;5073807;28;1099;-48
2022/07/13 05:27:00;;;;;;;;;;;;;;;25.45;34.65;100910.31;5069010;28;1079;-43
2022/07/13 05:29:26;;;;;;;;;;;;;;;25.22;34.22;100905.56;5062206;28;969;-41
2022/07/13 05:31:51;;;;;;;;;;;;;;;25.19;34.72;100912.13;5061761;28;1174;-43
2022/07/13 05:34:16;;;;;;;;;;;;;;;25.47;34.19;100907.44;5064253;28;979;-45
2022/07/13 05:36:42;;;;;;;;;;;;;;;25.42;33.60;100902.56;5059653;28;1249;-43
2022/07/13 05:39:08;;;;;;;;;;;;;;;25.24;33.69;100911.63;5059417;28;1959;-45
2022/07/13 05:41:34;;;;;;;;;;;;;;;25.33;33.60;100909.78;5072627;28;1208;-47
2022/07/13 05:43:59;;;;;;;;;;;;;;;25.28;32.99;100902.22;5061463;28;1345;-42
2022/07/13 05:46:25;;;;;;;;;;;;;;;25.38;32.44;100898.50;5062597;28;1270;-42
2022/07/13 05:48:50;;;;;;;;;;;;;;;25.36;32.21;100892.47;5072641;28;1019;-42
2022/07/13 05:51:15;;;;;;;;;;;;;;;25.40;31.59;100899.19;5066330;28;2461;-41
2022/07/13 05:53:41;;;;;;;;;;;;;;;25.41;31.58;100901.72;5063761;28;965;-45
2022/07/13 05:56:06;;;;;;;;;;;;;;;25.51;31.70;100898.00;5067527;28;1013;-45
2022/07/13 05:58:32;;;;;;;;;;;;;;;25.61;31.42;100901.38;5066690;28;1961;-44
2022/07/13 06:00:57;;;;;;;;;;;;;;;25.66;31.57;100901.75;5069696;28;1227;-45
2022/07/13 06:03:22;;;;;;;;;;;;;;;25.80;31.33;100900.22;5075889;28;1110;-45
2022/07/13 06:05:48;;;;;;;;;;;;;;;25.82;31.43;100902.75;5066111;28;1067;-50
2022/07/13 06:08:13;;;;;;;;;;;;;;;25.88;31.33;100901.19;5076128;28;1242;-37
2022/07/13 06:10:38;;;;;;;;;;;;;;;26.04;30.54;100903.03;5067296;28;1083;-38
2022/07/13 06:13:04;;;;;;;;;;;;;;;26.18;30.95;100904.16;5067947;28;946;-37
2022/07/13 06:15:29;;;;;;;;;;;;;;;26.35;30.38;100899.59;5059171;28;1036;-37
2022/07/13 06:17:54;;;;;;;;;;;;;;;26.49;30.16;100895.31;5063415;28;1286;-38
2022/07/13 06:20:20;;;;;;;;;;;;;;;26.44;29.97;100892.34;5062483;28;1910;-37
2022/07/13 06:23:09;;;;;;;;;;;;;;;26.62;29.99;100884.00;5060666;28;2385;-37
2022/07/13 06:25:30;;;;;;;;;;;;;;;26.68;29.74;100886.97;5061380;28;1554;-36
2022/07/13 06:27:55;;;;;;;;;;;;;;;26.73;29.73;100895.38;5058440;28;1127;-37
2022/07/13 06:30:21;;;;;;;;;;;;;;;26.86;29.75;100886.72;5070744;28;1111;-35
2022/07/13 06:32:46;;;;;;;;;;;;;;;26.87;29.71;100893.78;5067154;28;941;-36
2022/07/13 06:35:12;;;;;;;;;;;;;;;26.99;30.00;100886.13;5058380;28;851;-35
2022/07/13 06:37:37;;;;;;;;;;;;;;;26.96;29.90;100884.63;5069113;28;921;-35
2022/07/13 06:40:02;;;;;;;;;;;;;;;26.96;29.77;100884.63;5062819;28;1906;-34
2022/07/13 06:42:28;;;;;;;;;;;;;;;27.14;29.14;100889.75;5070548;28;1078;-34
2022/07/13 06:44:55;;;;;;;;;;;;;;;27.20;29.15;100885.50;5074529;28;1031;-36
2022/07/13 06:47:20;;;;;;;;;;;;;;;27.42;28.94;100887.53;5062596;28;1190;-35
2022/07/13 06:49:45;;;;;;;;;;;;;;;27.27;29.25;100885.63;5075557;28;996;-34
2022/07/13 06:52:11;;;;;;;;;;;;;;;27.50;28.70;100885.59;5073323;28;2560;-36
2022/07/13 06:54:36;;;;;;;;;;;;;;;27.57;28.63;100885.72;5076991;28;1008;-36
2022/07/13 06:57:01;;;;;;;;;;;;;;;27.56;28.90;100885.91;5069887;28;980;-36
2022/07/13 06:59:27;;;;;;;;;;;;;;;27.72;28.89;100887.63;5061381;28;1870;-36
2022/07/13 07:01:52;;;;;;;;;;;;;;;27.71;28.61;100886.78;5072038;28;1187;-36
2022/07/13 07:04:17;;;;;;;;;;;;;;;27.76;28.59;100878.13;5068081;28;1279;-35
2022/07/13 07:06:42;;;;;;;;;;;;;;;27.99;28.12;100885.34;5067468;28;980;-34
2022/07/13 07:09:08;;;;;;;;;;;;;;;27.84;28.69;100878.03;5067925;28;1198;-35
2022/07/13 07:11:33;;;;;;;;;;;;;;;27.91;28.52;100880.03;5065332;28;924;-35
2022/07/13 07:13:58;;;;;;;;;;;;;;;27.96;28.38;100878.41;5074805;28;1035;-34
2022/07/13 07:16:24;;;;;;;;;;;;;;;28.15;27.76;100878.03;5075666;28;1000;-34
2022/07/13 07:18:49;;;;;;;;;;;;;;;28.05;28.25;100881.88;5066299;28;1982;-35
2022/07/13 07:21:14;;;;;;;;;;;;;;;28.22;27.41;100884.41;5062639;28;2381;-35
2022/07/13 07:23:39;;;;;;;;;;;;;;;28.33;27.73;100883.09;5064375;28;1021;-35
2022/07/13 07:26:05;;;;;;;;;;;;;;;28.30;27.76;100884.31;5068258;28;1083;-35
2022/07/13 07:28:31;;;;;;;;;;;;;;;28.30;27.59;100887.00;5058941;28;1020;-34
2022/07/13 07:30:56;;;;;;;;;;;;;;;28.48;26.61;100880.38;5064156;28;1186;-34
2022/07/13 07:33:21;;;;;;;;;;;;;;;28.56;26.21;100891.09;5065247;28;1004;-34
2022/07/13 07:35:47;;;;;;;;;;;;;;;28.65;26.11;100881.00;5065778;28;1000;-34
2022/07/13 07:38:13;;;;;;;;;;;;;;;28.56;26.06;100890.28;5067600;28;1897;-34
2022/07/13 07:40:39;;;;;;;;;;;;;;;28.37;26.38;100889.84;5062657;28;1018;-35
2022/07/13 07:43:04;;;;;;;;;;;;;;;28.59;25.95;100888.00;5061949;28;1234;-35
2022/07/13 07:45:29;;;;;;;;;;;;;;;28.56;26.15;100891.09;5065506;28;1001;-34
2022/07/13 07:47:55;;;;;;;;;;;;;;;28.53;26.36;100896.06;5061392;28;1209;-33
2022/07/13 07:50:20;;;;;;;;;;;;;;;28.41;25.99;100907.34;5072583;28;1079;-35
2022/07/13 07:52:45;;;;;;;;;;;;;;;28.55;26.18;100897.56;5060847;28;2488;-35
2022/07/13 07:55:10;;;;;;;;;;;;;;;28.80;25.49;100899.06;5068874;28;1032;-35
2022/07/13 07:57:46;;;;;;;;;;;;;;;28.61;25.83;100895.97;5061048;28;984;-35
2022/07/13 08:00:11;;;;;;;;;;;;;;;28.70;25.65;100902.09;5069775;28;1975;-34
2022/07/13 08:02:37;;;;;;;;;;;;;;;28.91;25.86;100893.16;5057975;28;1120;-34
2022/07/13 08:05:02;;;;;;;;;;;;;;;28.67;26.02;100892.50;5069614;28;1008;-35
2022/07/13 08:07:30;;;;;;;;;;;;;;;28.68;25.93;100890.59;5064158;28;1029;-35
2022/07/13 08:09:56;;;;;;;;;;;;;;;28.80;25.83;100910.75;5070574;28;1239;-35
2022/07/13 08:12:21;;;;;;;;;;;;;;;28.63;26.01;100907.41;5063227;28;1060;-34
2022/07/13 08:14:47;;;;;;;;;;;;;;;28.87;25.55;100907.28;5074174;28;1254;-34
2022/07/13 08:17:12;;;;;;;;;;;;;;;28.93;25.46;100904.63;5063347;28;1005;-33
2022/07/13 08:19:37;;;;;;;;;;;;;;;28.83;25.50;100913.06;5069416;28;1958;-34
2022/07/13 08:22:03;;;;;;;;;;;;;;;29.01;25.12;100913.72;5061640;28;2566;-33
2022/07/13 08:24:28;;;;;;;;;;;;;;;28.86;25.18;100911.88;5062887;28;1053;-35
2022/07/13 08:26:54;;;;;;;;;;;;;;;28.96;25.56;100912.38;5062822;28;1051;-35
2022/07/13 08:29:19;;;;;;;;;;;;;;;29.13;25.58;100914.06;5071025;28;1062;-34
2022/07/13 08:31:44;;;;;;;;;;;;;;;29.04;25.99;100911.47;5059412;28;949;-35
2022/07/13 08:39:37;;;;;;;;;;;;;;;29.04;26.91;100911.47;5064747;28;1965;-36
2022/07/13 08:42:04;;;;;;;;;;;;;;;29.06;27.09;100916.69;5064943;28;1193;-36
2022/07/13 08:44:30;;;;;;;;;;;;;;;29.13;26.92;100909.44;5064913;28;1105;-37
2022/07/13 08:46:55;;;;;;;;;;;;;;;29.14;26.50;100905.72;5064463;28;1125;-35
2022/07/13 08:49:21;;;;;;;;;;;;;;;29.07;27.24;100900.25;5057736;28;1280;-36
2022/07/13 08:51:47;;;;;;;;;;;;;;;29.15;27.18;100906.53;5050031;28;2538;-35
2022/07/13 08:54:13;;;;;;;;;;;;;;;29.16;27.17;100898.22;5065790;28;1222;-37
2022/07/13 08:56:41;;;;;;;;;;;;;;;29.41;25.71;100900.53;5061196;28;1324;-38
2022/07/13 08:59:07;;;;;;;;;;;;;;;29.42;25.72;100895.97;5056369;28;1886;-36
2022/07/13 09:01:33;;;;;;;;;;;;;;;29.19;26.55;100899.72;5063141;28;1110;-34
2022/07/13 09:03:58;;;;;;;;;;;;;;;29.39;25.72;100894.50;5064871;28;1239;-36
2022/07/13 09:06:39;;;;;;;;;;;;;;;29.80;24.36;100906.50;5062318;28;1162;-36
2022/07/13 09:09:22;;;;;;;;;;;;;;;29.87;23.37;100890.28;5058710;28;1150;-35
2022/07/13 09:11:48;;;;;;;;;;;;;;;29.80;23.42;100905.66;5063024;28;1015;-35
2022/07/13 09:14:22;;;;;;;;;;;;;;;29.71;23.21;100896.88;5067470;28;1171;-36
2022/07/13 09:16:51;;;;;;;;;;;;;;;29.87;22.52;100895.72;5067216;28;1005;-35
2022/07/13 09:19:16;;;;;;;;;;;;;;;29.84;22.36;100890.69;5057144;28;1964;-36
2022/07/13 09:21:42;;;;;;;;;;;;;;;29.91;22.58;100898.88;5066873;28;2109;-36
2022/07/13 09:24:07;;;;;;;;;;;;;;;29.69;23.24;100886.22;5057218;28;1329;-36
2022/07/13 09:26:40;;;;;;;;;;;;;;;29.69;23.64;100888.94;5062988;28;1539;-36
2022/07/13 09:29:05;;;;;;;;;;;;;;;29.81;23.64;100878.34;5067095;28;1063;-36
2022/07/13 09:31:30;;;;;;;;;;;;;;;30.04;22.29;100877.25;5058512;28;1035;-38
2022/07/13 09:33:56;;;;;;;;;;;;;;;30.01;21.83;100874.91;5069266;28;1008;-38
2022/07/13 09:36:22;;;;;;;;;;;;;;;29.99;22.00;100865.31;5062836;28;913;-35
2022/07/13 09:38:51;;;;;;;;;;;;;;;29.92;22.57;100876.97;5067454;28;1894;-35
2022/07/13 09:41:16;;;;;;;;;;;;;;;30.16;21.97;100871.25;5065565;28;1056;-36
2022/07/13 09:47:00;;;;;;;;;;;;;;;29.81;22.47;100866.69;5065356;28;964;-35
2022/07/13 09:49:31;;;;;;;;;;;;;;;30.00;21.40;100867.81;5063471;28;1294;-36
2022/07/13 09:51:57;;;;;;;;;;;;;;;30.06;21.22;100875.16;5059547;28;2539;-35
2022/07/13 09:54:23;;;;;;;;;;;;;;;29.86;23.31;100864.22;5059429;28;1297;-36
2022/07/13 09:56:49;;;;;;;;;;;;;;;29.79;23.08;100866.88;5063705;28;1029;-36
2022/07/13 09:59:15;;;;;;;;;;;;;;;29.83;23.91;100875.44;5071775;28;1894;-36
2022/07/13 10:01:40;;;;;;;;;;;;;;;29.81;24.52;100866.69;5065958;28;1156;-35
2022/07/13 10:04:06;;;;;;;;;;;;;;;30.01;22.85;100861.34;5075802;28;1158;-35
2022/07/13 10:06:31;;;;;;;;;;;;;;;29.82;23.71;100858.34;5070081;28;958;-37
2022/07/13 10:08:56;;;;;;;;;;;;;;;29.84;23.63;100852.72;5066565;28;1011;-35
2022/07/13 10:11:22;;;;;;;;;;;;;;;30.08;22.69;100852.44;5066237;28;1083;-36
2022/07/13 10:13:47;;;;;;;;;;;;;;;30.12;22.42;100856.41;5066284;28;1028;-36
2022/07/13 10:16:12;;;;;;;;;;;;;;;30.11;22.86;100828.47;5060913;28;1210;-34
2022/07/13 10:18:39;;;;;;;;;;;;;;;30.24;21.74;100845.84;5074306;28;1906;-35
2022/07/13 10:21:10;;;;;;;;;;;;;;;29.87;23.21;100841.47;5064901;28;2460;-34
2022/07/13 10:23:37;;;;;;;;;;;;;;;30.04;22.66;100839.28;5065887;28;1084;-37
2022/07/13 10:26:02;;;;;;;;;;;;;;;30.17;22.53;100843.94;5063863;28;1112;-36
2022/07/13 10:28:27;;;;;;;;;;;;;;;29.98;23.46;100840.06;5065522;28;1084;-36
2022/07/13 10:30:53;;;;;;;;;;;;;;;30.17;22.05;100845.78;5062502;28;1104;-36
2022/07/13 10:33:19;;;;;;;;;;;;;;;30.21;22.92;100841.69;5069217;28;1543;-36
2022/07/13 10:35:51;;;;;;;;;;;;;;;29.77;23.46;100838.28;5062135;28;1076;-35
2022/07/13 10:38:17;;;;;;;;;;;;;;;29.70;23.60;100835.53;5064059;28;1891;-33
2022/07/13 10:40:43;;;;;;;;;;;;;;;29.53;25.18;100826.84;5070325;28;1247;-34
2022/07/13 10:43:09;;;;;;;;;;;;;;;29.29;25.20;100823.53;5075301;28;996;-35
2022/07/13 10:45:41;;;;;;;;;;;;;;;29.28;24.85;100821.88;5063081;28;1004;-33
2022/07/13 10:48:06;;;;;;;;;;;;;;;29.14;25.92;100826.31;5063290;28;1059;-35
2022/07/13 10:50:43;;;;;;;;;;;;;;;29.13;25.67;100824.66;5072525;28;1051;-36
2022/07/13 10:53:08;;;;;;;;;;;;;;;29.11;25.96;100822.16;5072185;28;3019;-34
2022/07/13 10:55:34;;;;;;;;;;;;;;;29.11;26.37;100829.44;5065434;28;987;-35
2022/07/13 10:58:02;;;;;;;;;;;;;;;29.18;26.24;100825.75;5070898;28;1071;-34
2022/07/13 11:00:37;;;;;;;;;;;;;;;29.14;27.17;100820.91;5061542;28;1901;-34
2022/07/13 11:03:05;;;;;;;;;;;;;;;29.07;27.51;100823.56;5072791;28;1568;-34
2022/07/13 11:05:34;;;;;;;;;;;;;;;29.04;26.41;100816.69;5070660;28;1143;-35
2022/07/13 11:08:10;;;;;;;;;;;;;;;29.02;26.47;100815.19;5070703;28;1118;-35
2022/07/13 11:10:36;;;;;;;;;;;;;;;29.08;26.57;100804.41;5067186;28;1004;-37
2022/07/13 11:13:03;;;;;;;;;;;;;;;29.07;26.15;100801.91;5062684;28;1044;-36
2022/07/13 11:15:48;;;;;;;;;;;;;;;29.08;26.35;100803.56;5065992;28;1064;-36
2022/07/13 11:18:22;;;;;;;;;;;;;;;28.94;27.29;100814.25;5058783;28;1981;-36
2022/07/13 11:21:00;;;;;;;;;;;;;;;29.03;27.34;100800.63;5071724;28;1491;-35
2022/07/13 11:26:28;;;;;;;;;;;;;;;28.92;27.31;100804.66;5058884;28;1231;-36
2022/07/13 11:28:55;;;;;;;;;;;;;;;28.75;27.60;100802.19;5065914;28;1227;-36
2022/07/13 11:31:20;;;;;;;;;;;;;;;28.84;27.75;100797.50;5066847;28;985;-36
2022/07/13 11:33:52;;;;;;;;;;;;;;;28.88;27.67;100809.59;5072314;28;1257;-36
2022/07/13 11:36:18;;;;;;;;;;;;;;;28.85;28.12;100813.53;5068925;28;1011;-36
2022/07/13 11:38:43;;;;;;;;;;;;;;;28.84;28.39;100811.03;5056599;28;1994;-36
2022/07/13 11:41:14;;;;;;;;;;;;;;;28.87;28.11;100809.81;5067962;28;972;-35
2022/07/13 11:44:06;;;;;;;;;;;;;;;28.83;28.79;100802.06;5066735;28;1411;-35
2022/07/13 11:46:33;;;;;;;;;;;;;;;28.93;29.23;100803.59;5064504;28;1765;-34
2022/07/13 11:49:02;;;;;;;;;;;;;;;28.85;27.67;100802.72;5061351;28;1158;-35
2022/07/13 11:51:27;;;;;;;;;;;;;;;28.89;27.75;100802.31;5065649;28;2540;-36
2022/07/13 11:53:53;;;;;;;;;;;;;;;28.90;27.58;100796.72;5069028;28;1221;-35
2022/07/13 11:56:18;;;;;;;;;;;;;;;28.95;27.65;100796.13;5067471;28;1059;-35
2022/07/13 11:58:45;;;;;;;;;;;;;;;28.87;27.97;100789.00;5056620;28;1910;-36
2022/07/13 12:01:17;;;;;;;;;;;;;;;28.81;28.54;100789.78;5062880;28;1216;-36
2022/07/13 12:06:44;;;;;;;;;;;;;;;28.75;29.62;100780.53;5060334;28;1025;-36
2022/07/13 12:09:16;;;;;;;;;;;;;;;28.78;28.40;100782.03;5058493;28;1099;-34
2022/07/13 12:11:41;;;;;;;;;;;;;;;28.72;28.04;100783.63;5058401;28;1143;-35
2022/07/13 12:14:08;;;;;;;;;;;;;;;28.76;29.04;100778.69;5059094;28;1230;-34
2022/07/13 12:16:33;;;;;;;;;;;;;;;28.85;30.69;100783.75;5067368;28;1100;-36
2022/07/13 12:18:59;;;;;;;;;;;;;;;28.81;31.38;100781.66;5066123;28;1909;-37
2022/07/13 12:21:24;;;;;;;;;;;;;;;28.81;29.09;100773.53;5066019;28;2429;-37
2022/07/13 12:23:49;;;;;;;;;;;;;;;28.87;28.32;100772.75;5069830;28;1071;-36
2022/07/13 12:26:15;;;;;;;;;;;;;;;28.79;28.32;100773.72;5061972;28;1109;-36
2022/07/13 12:28:41;;;;;;;;;;;;;;;28.81;28.27;100777.06;5066809;28;1029;-36
2022/07/13 12:31:06;;;;;;;;;;;;;;;28.66;29.08;100770.88;5063180;28;1191;-36
2022/07/13 12:33:39;;;;;;;;;;;;;;;28.60;30.40;100767.91;5068993;28;1171;-37
2022/07/13 12:36:05;;;;;;;;;;;;;;;28.61;29.36;100757.94;5065901;28;961;-37
2022/07/13 12:38:31;;;;;;;;;;;;;;;28.60;28.36;100770.63;5064051;28;1897;-37
2022/07/13 12:40:58;;;;;;;;;;;;;;;28.52;28.35;100757.22;5068593;28;976;-37
2022/07/13 12:43:30;;;;;;;;;;;;;;;28.62;28.32;100753.34;5061707;28;1130;-36
2022/07/13 12:45:58;;;;;;;;;;;;;;;28.64;28.30;100737.75;5066585;28;1063;-37
2022/07/13 12:48:24;;;;;;;;;;;;;;;29.17;26.27;100760.94;5063154;28;1056;-37
2022/07/13 12:50:57;;;;;;;;;;;;;;;29.31;25.65;100729.34;5071566;28;1162;-37
2022/07/13 12:53:23;;;;;;;;;;;;;;;30.01;22.70;100755.56;5065661;28;1167;-37
2022/07/13 12:55:57;;;;;;;;;;;;;;;29.96;22.79;100747.25;5060359;28;1013;-37
2022/07/13 12:58:38;;;;;;;;;;;;;;;29.88;24.30;100750.94;5070214;28;1949;-37
2022/07/13 13:01:03;;;;;;;;;;;;;;;30.18;22.67;100741.66;5056329;28;1149;-38